createdAt,value
2022-10-17T00:04:41.108Z,14.94
2022-10-17T00:09:44.744Z,14.97
2022-10-17T00:14:49.736Z,14.97
2022-10-17T00:19:53.174Z,14.86
2022-10-17T00:24:56.676Z,14.54
2022-10-17T00:30:02.540Z,14.69
2022-10-17T00:35:16.608Z,12.88
2022-10-17T00:40:20.903Z,13.82
2022-10-17T00:45:29.596Z,13.45
2022-10-17T00:50:33.524Z,14.11
2022-10-17T00:55:39.364Z,14.10
2022-10-17T01:06:28.444Z,14.50
2022-10-17T01:11:41.024Z,14.35
2022-10-17T01:16:52.230Z,14.48
2022-10-17T01:21:56.940Z,13.14
2022-10-17T01:27:19.675Z,14.24
2022-10-17T01:32:29.379Z,13.97
2022-10-17T01:37:35.331Z,13.69
2022-10-17T01:42:43.507Z,13.40
2022-10-17T01:47:51.039Z,13.95
2022-10-17T01:52:57.170Z,14.03
2022-10-17T01:58:04.095Z,13.26
2022-10-17T02:03:13.795Z,13.39
2022-10-17T02:08:27.119Z,13.83
2022-10-17T02:13:39.268Z,13.97
2022-10-17T02:18:59.791Z,14.04
2022-10-17T02:24:07.432Z,13.75
2022-10-17T02:29:16.710Z,13.87
2022-10-17T02:34:26.402Z,13.75
2022-10-17T02:39:30.446Z,13.58
2022-10-17T02:44:34.670Z,13.82
2022-10-17T02:49:42.013Z,13.68
2022-10-17T02:54:49.582Z,13.79
2022-10-17T02:59:53.452Z,13.70
2022-10-17T03:04:59.138Z,13.26
2022-10-17T03:10:03.482Z,13.72
2022-10-17T03:15:09.118Z,12.69
2022-10-17T03:20:15.698Z,13.38
2022-10-17T03:25:20.549Z,12.13
2022-10-17T03:30:26.402Z,12.68
2022-10-17T03:35:32.617Z,13.50
2022-10-17T03:40:37.415Z,13.48
2022-10-17T03:45:41.958Z,13.51
2022-10-17T03:50:47.423Z,12.41
2022-10-17T03:55:51.454Z,12.61
2022-10-17T04:00:55.886Z,11.97
2022-10-17T04:06:02.163Z,12.66
2022-10-17T04:11:09.297Z,12.97
2022-10-17T04:16:14.865Z,13.11
2022-10-17T04:21:29.916Z,13.00
2022-10-17T04:26:38.089Z,12.63
2022-10-17T04:31:42.254Z,13.36
2022-10-17T04:36:57.233Z,12.28
2022-10-17T04:42:02.885Z,13.31
2022-10-17T04:47:09.924Z,13.20
2022-10-17T04:52:17.607Z,12.98
2022-10-17T04:57:25.261Z,13.11
2022-10-17T05:02:38.196Z,12.98
2022-10-17T05:07:44.156Z,13.08
2022-10-17T05:12:51.629Z,12.91
2022-10-17T05:24:19.752Z,13.19
2022-10-17T05:29:36.862Z,13.07
2022-10-17T05:35:08.499Z,12.98
2022-10-17T05:40:42.719Z,12.47
2022-10-17T05:45:48.481Z,13.35
2022-10-17T05:50:59.956Z,13.45
2022-10-17T05:56:08.116Z,13.62
2022-10-17T06:06:51.524Z,13.13
2022-10-17T06:17:40.735Z,13.87
2022-10-17T06:22:44.399Z,14.34
2022-10-17T06:33:03.488Z,14.84
2022-10-17T06:38:07.427Z,14.99
2022-10-17T06:43:13.815Z,14.97
2022-10-17T06:48:45.340Z,15.27
2022-10-17T06:53:56.602Z,15.52
2022-10-17T06:59:10.459Z,15.68
2022-10-17T07:04:17.463Z,15.93
2022-10-17T07:09:21.188Z,16.36
2022-10-17T07:14:31.939Z,16.31
2022-10-17T07:19:37.363Z,16.37
2022-10-17T07:24:41.045Z,16.60
2022-10-17T07:29:52.190Z,16.86
2022-10-17T07:35:16.317Z,17.10
2022-10-17T07:40:20.061Z,17.00
2022-10-17T07:45:27.776Z,17.36
2022-10-17T07:50:33.259Z,17.11
2022-10-17T07:55:39.009Z,17.37
2022-10-17T08:00:43.062Z,17.48
2022-10-17T08:05:49.607Z,17.70
2022-10-17T08:10:54.369Z,17.70
2022-10-17T08:16:01.238Z,17.81
2022-10-17T08:21:08.638Z,18.13
2022-10-17T08:26:17.506Z,17.57
2022-10-17T08:31:47.871Z,18.21
2022-10-17T08:36:54.428Z,17.85
2022-10-17T08:42:10.459Z,18.38
2022-10-17T08:53:10.760Z,18.59
2022-10-17T08:58:16.009Z,18.46
2022-10-17T09:03:32.949Z,18.93
2022-10-17T09:08:46.284Z,19.09
2022-10-17T09:13:59.056Z,17.98
2022-10-17T09:19:10.440Z,19.26
2022-10-17T09:24:19.120Z,19.35
2022-10-17T09:29:29.606Z,19.15
2022-10-17T09:35:32.449Z,19.60
2022-10-17T09:40:38.657Z,19.61
2022-10-17T09:45:50.228Z,19.76
2022-10-17T09:51:25.680Z,19.75
2022-10-17T10:04:20.295Z,20.05
2022-10-17T10:09:26.176Z,20.19
2022-10-17T10:14:34.516Z,19.50
2022-10-17T10:19:41.165Z,20.29
2022-10-17T10:24:45.076Z,20.37
2022-10-17T10:29:51.547Z,20.17
2022-10-17T10:34:59.247Z,20.27
2022-10-17T10:40:04.765Z,20.03
2022-10-17T10:45:35.972Z,20.56
2022-10-17T10:50:46.807Z,20.65
2022-10-17T10:55:52.784Z,20.36
2022-10-17T11:00:58.482Z,20.80
2022-10-17T11:06:07.812Z,20.65
2022-10-17T11:11:18.352Z,20.88
2022-10-17T11:16:31.048Z,21.06
2022-10-17T11:21:57.088Z,21.19
2022-10-17T11:27:02.548Z,21.17
2022-10-17T11:43:39.729Z,20.30
2022-10-17T11:48:50.148Z,21.49
2022-10-17T11:59:35.167Z,20.17
2022-10-17T12:10:35.618Z,21.12
2022-10-17T12:15:44.670Z,21.77
2022-10-17T12:20:57.298Z,21.45
2022-10-17T12:26:05.282Z,21.90
2022-10-17T12:31:13.695Z,21.80
2022-10-17T12:36:38.265Z,21.82
2022-10-17T12:41:55.476Z,21.80
2022-10-17T12:53:04.830Z,21.95
2022-10-17T12:58:14.831Z,21.99
2022-10-17T13:03:19.758Z,22.00
2022-10-17T13:08:26.816Z,21.89
2022-10-17T13:20:00.402Z,21.32
2022-10-17T13:40:49.066Z,21.65
2022-10-17T13:52:42.150Z,20.84
2022-10-17T13:57:45.647Z,21.35
2022-10-17T14:02:49.554Z,20.89
2022-10-17T14:08:11.422Z,21.43
2022-10-17T14:13:23.789Z,21.43
2022-10-17T14:18:34.834Z,21.21
2022-10-17T14:23:41.053Z,21.30
2022-10-17T14:28:46.297Z,21.08
2022-10-17T14:33:51.112Z,21.11
2022-10-17T14:38:56.212Z,21.06
2022-10-17T14:44:01.080Z,20.86
2022-10-17T14:49:07.532Z,20.90
2022-10-17T14:54:21.837Z,20.71
2022-10-17T14:59:52.053Z,20.70
2022-10-17T15:04:49.292Z,20.56
2022-10-17T15:09:54.998Z,20.26
2022-10-17T15:14:58.388Z,20.29
2022-10-17T15:20:01.739Z,20.17
2022-10-17T15:25:07.691Z,20.02
2022-10-17T15:30:21.631Z,19.72
2022-10-17T15:35:25.932Z,19.72
2022-10-17T15:40:31.115Z,19.53
2022-10-17T15:45:35.939Z,19.36
2022-10-17T15:50:39.381Z,19.21
2022-10-17T15:55:44.091Z,19.07
2022-10-17T16:00:47.734Z,17.96
2022-10-17T16:05:51.103Z,18.85
2022-10-17T16:10:55.973Z,18.72
2022-10-17T16:15:59.335Z,18.36
2022-10-17T16:21:02.648Z,18.51
2022-10-17T16:26:07.591Z,17.92
2022-10-17T16:31:21.131Z,18.29
2022-10-17T16:36:24.644Z,18.03
2022-10-17T16:41:31.214Z,18.08
2022-10-17T16:46:35.240Z,17.98
2022-10-17T16:51:38.760Z,17.89
2022-10-17T16:56:43.546Z,17.40
2022-10-17T17:01:48.953Z,17.49
2022-10-17T17:06:52.378Z,16.57
2022-10-17T17:11:57.166Z,17.63
2022-10-17T17:17:00.530Z,17.49
2022-10-17T17:22:03.941Z,17.49
2022-10-17T17:27:11.302Z,17.41
2022-10-17T17:32:16.914Z,17.18
2022-10-17T17:37:20.300Z,17.28
2022-10-17T17:42:25.116Z,16.68
2022-10-17T17:47:30.263Z,17.02
2022-10-17T17:52:33.974Z,17.06
2022-10-17T17:57:38.727Z,17.00
2022-10-17T18:02:44.363Z,16.38
2022-10-17T18:07:47.958Z,16.77
2022-10-17T18:13:17.326Z,16.63
2022-10-17T18:18:20.743Z,16.28
2022-10-17T18:23:24.550Z,16.53
2022-10-17T18:28:29.630Z,16.33
2022-10-17T18:33:33.102Z,16.33
2022-10-17T18:38:37.073Z,16.51
2022-10-17T18:43:43.441Z,16.22
2022-10-17T18:48:48.013Z,16.54
2022-10-17T18:53:52.967Z,16.55
2022-10-17T18:58:58.653Z,16.53
2022-10-17T19:04:02.033Z,15.94
2022-10-17T19:09:07.237Z,16.48
2022-10-17T19:14:14.146Z,16.45
2022-10-17T19:19:22.157Z,16.36
2022-10-17T19:24:28.824Z,16.41
2022-10-17T19:29:33.669Z,16.19
2022-10-17T19:34:37.264Z,16.02
2022-10-17T19:39:40.708Z,15.35
2022-10-17T19:52:16.730Z,16.32
2022-10-17T19:57:47.469Z,16.32
2022-10-17T20:02:50.913Z,16.14
2022-10-17T20:07:54.373Z,16.34
2022-10-17T20:13:47.846Z,16.31
2022-10-17T20:18:56.405Z,16.10
2022-10-17T20:24:05.977Z,14.78
2022-10-17T20:29:12.257Z,15.86
2022-10-17T20:34:22.621Z,16.12
2022-10-17T20:39:51.220Z,16.08
2022-10-17T20:45:00.499Z,15.48
2022-10-17T20:50:18.433Z,15.64
2022-10-17T20:55:22.524Z,15.95
2022-10-17T21:00:26.568Z,15.39
2022-10-17T23:01:48.911Z,15.06
2022-10-17T23:06:53.087Z,15.27
2022-10-17T23:11:57.622Z,13.26
2022-10-17T23:17:03.124Z,15.23
2022-10-17T23:22:08.930Z,15.26
2022-10-17T23:27:15.123Z,13.75
2022-10-17T23:32:23.855Z,14.75
2022-10-17T23:37:31.654Z,13.86
2022-10-17T23:42:37.584Z,14.44
2022-10-17T23:47:44.771Z,14.41
